Mora RC

Dec. 14, 2019, 4:35 p.m.

  • imperial
Air Temperature RH Dewpoint Wind Chill Heat Index Wind Speed Wind Direction Precipitation Solar Radiation Soil Temperature
Date Time Max Mean Mean Total Total
US/Mountain F % F F F MPH MPH MPH deg. deg. in. MJ/m^2 F
2019-12-13 16:35 41.38 35.72 16.22 36.73 41.38 7.07 9.22 5.53 19.2 282.0 0.0 0.001 41.43
2019-12-13 16:40 41.38 33.26 14.58 35.66 41.38 9.22 12.42 7.87 23.3 287.0 0.0 0.0 41.38
2019-12-13 16:45 41.45 33.57 14.86 36.09 41.45 8.48 15.64 8.48 22.2 279.9 0.0 0.0 41.31
2019-12-13 16:50 41.4 34.29 15.3 36.86 41.4 6.89 14.03 9.62 23.9 282.2 0.0 0.0 41.23
2019-12-13 16:55 41.45 35.01 15.82 37.7 41.45 5.64 12.06 8.14 23.0 283.2 0.0 0.001 41.16
2019-12-13 17:00 41.09 34.49 15.16 35.47 41.09 8.86 12.06 7.45 31.4 287.1 0.0 0.0 41.09
2019-12-13 17:05 41.14 33.85 14.78 34.57 41.14 11.16 13.49 8.52 22.0 279.7 0.0 0.0 41.05
2019-12-13 17:10 41.22 34.46 15.25 36.34 41.22 7.43 12.42 8.48 23.2 285.9 0.0 0.0 40.98
2019-12-13 17:15 41.02 35.52 15.77 38.61 41.02 3.85 10.09 6.78 23.9 285.2 0.0 0.0 40.93
2019-12-13 17:20 40.91 34.97 15.31 36.37 40.91 6.71 7.78 6.0 24.1 302.2 0.0 0.0 40.86
2019-12-13 17:25 41.09 34.84 15.39 35.15 41.09 9.57 9.57 6.44 16.9 291.4 0.0 0.0 40.78
2019-12-13 17:30 40.96 35.49 15.7 37.24 40.96 5.46 8.12 5.46 19.9 285.3 0.0 0.0 40.75
2019-12-13 17:35 40.91 35.86 15.89 36.94 40.91 5.82 8.86 6.15 18.7 289.4 0.0 0.0 40.69
2019-12-13 17:40 40.91 36.27 16.15 38.01 40.91 4.38 9.22 5.23 23.5 281.4 0.0 0.0 40.62
2019-12-13 17:45 40.66 36.34 15.97 37.42 40.66 4.74 5.82 4.21 23.9 289.1 0.0 0.0 40.55
2019-12-13 17:50 40.55 37.74 16.75 36.63 40.55 5.64 5.64 3.98 18.8 278.3 0.0 0.0 40.51
2019-12-13 17:55 39.56 39.83 17.11 37.29 39.56 3.49 5.46 3.53 27.0 274.5 0.0 0.0 40.44
2019-12-13 18:00 39.0 40.61 17.05 37.05 39.0 3.13 4.38 3.13 16.2 283.0 0.0 0.0 40.41
2019-12-13 18:05 38.88 40.95 17.13 38.88 38.88 2.77 4.38 3.09 21.3 285.9 0.0 0.0 40.33
2019-12-13 18:10 38.7 41.06 17.03 33.5 38.7 7.07 7.43 2.84 34.1 294.5 0.0 0.0 40.28
2019-12-13 18:15 39.69 39.79 17.2 34.2 39.69 7.96 9.4 5.77 15.8 319.3 0.0 0.0 40.23
2019-12-13 18:20 40.05 39.15 17.15 35.56 40.05 6.35 8.48 5.32 18.8 322.3 0.0 0.0 40.17
2019-12-13 18:25 40.17 40.03 17.78 37.63 40.17 3.85 9.91 5.73 28.0 307.2 0.0 0.0 40.12
2019-12-13 18:30 39.51 41.16 17.82 39.51 39.51 1.88 7.78 3.96 29.6 287.4 0.0 0.0 40.08
2019-12-13 18:35 38.95 41.67 17.6 38.95 38.95 2.59 6.0 3.24 31.3 292.7 0.0 0.0 40.01
2019-12-13 18:40 39.69 39.08 16.78 34.39 39.69 7.61 9.22 4.97 24.9 295.7 0.0 0.0 39.97
2019-12-13 18:45 39.94 39.62 17.33 35.1 39.94 6.89 10.09 5.84 31.6 296.0 0.0 0.0 39.92
2019-12-13 18:50 40.05 38.84 16.96 36.7 40.05 4.74 8.12 4.14 33.9 313.8 0.0 0.0 39.87
2019-12-13 18:55 40.17 39.76 17.62 40.17 40.17 2.77 6.71 3.58 27.9 323.8 0.0 0.0 39.81
2019-12-13 19:00 40.55 38.26 17.07 36.16 40.55 6.35 9.22 5.08 22.7 328.0 0.0 0.0 39.76
2019-12-13 19:05 40.55 38.6 17.27 38.81 40.55 3.13 6.17 4.05 20.9 326.5 0.0 0.0 39.72
2019-12-13 19:10 40.55 38.29 17.08 36.63 40.55 5.64 11.16 6.02 21.5 319.4 0.0 0.0 39.67
2019-12-13 19:15 40.48 38.77 17.31 37.35 40.48 4.56 11.52 6.85 22.9 331.5 0.0 0.0 39.63
2019-12-13 19:20 40.05 40.14 17.73 35.91 40.05 5.82 10.45 6.38 27.8 326.9 0.0 0.0 39.6
2019-12-13 19:25 39.43 42.9 18.72 36.61 39.43 4.03 10.27 5.21 32.2 339.2 0.0 0.0 39.58
2019-12-13 19:30 38.82 45.02 19.29 32.87 38.82 8.48 9.73 6.4 26.0 334.7 0.0 0.0 39.54
2019-12-13 19:35 38.57 46.66 19.9 32.29 38.57 9.04 13.13 7.61 15.2 325.8 0.0 0.0 39.51
2019-12-13 19:40 38.03 49.53 20.8 32.0 38.03 8.3 10.63 6.51 24.4 339.2 0.0 0.0 39.47
2019-12-13 19:45 37.78 49.63 20.62 30.98 37.78 9.73 11.34 7.83 18.7 340.9 0.0 0.0 39.43
2019-12-13 19:50 37.72 49.87 20.68 33.41 37.72 5.46 11.16 7.31 26.7 332.5 0.0 0.0 39.38
2019-12-13 19:55 37.9 48.57 20.23 32.88 37.9 6.53 10.45 7.14 19.5 341.2 0.0 0.0 39.34
2019-12-13 20:00 38.21 47.34 19.91 33.24 38.21 6.53 12.59 7.54 21.8 329.8 0.0 0.0 39.31
2019-12-13 20:05 38.34 45.91 19.3 30.56 38.34 12.42 15.1 7.18 24.2 326.2 0.0 0.0 39.25
2019-12-13 20:10 38.7 45.43 19.39 36.3 38.7 3.49 11.88 7.54 21.0 326.4 0.0 0.0 39.22
2019-12-13 20:15 38.57 46.11 19.62 34.55 38.57 5.28 12.59 6.62 17.7 323.9 0.0 0.0 39.18
2019-12-13 20:20 38.34 47.75 20.22 34.27 38.34 5.28 11.88 6.31 17.4 301.9 0.0 0.0 39.15
2019-12-13 20:25 38.16 48.51 20.43 31.05 38.16 10.63 14.56 7.78 17.8 335.4 0.0 0.0 39.11
2019-12-13 20:30 37.65 51.61 21.42 30.74 37.65 9.91 11.88 8.34 18.6 333.8 0.0 0.0 39.07
2019-12-13 20:35 37.29 53.12 21.77 32.38 37.29 6.17 12.59 6.76 23.6 333.8 0.0 0.0 39.04
2019-12-13 20:40 37.04 54.24 22.03 31.61 37.04 6.89 8.3 6.11 28.2 331.0 0.0 0.0 39.0
2019-12-13 20:45 36.79 55.13 22.18 31.91 36.79 6.0 9.04 4.3 52.7 334.4 0.0 0.0 39.0
2019-12-13 20:50 36.73 55.34 22.22 33.15 36.73 4.38 7.25 5.17 20.0 319.4 0.0 0.0 38.98
2019-12-13 20:55 36.61 54.66 21.81 33.53 36.61 3.85 10.45 5.57 44.1 319.7 0.0 0.0 38.93
2019-12-13 21:00 36.68 53.91 21.55 36.68 36.68 2.59 4.74 2.86 39.7 312.1 0.0 0.0 38.91
2019-12-13 21:05 36.99 51.99 20.98 36.99 36.99 2.24 10.27 3.6 46.9 336.3 0.0 0.0 38.89
2019-12-13 21:10 37.06 51.35 20.75 37.06 37.06 2.42 5.46 3.02 67.4 323.1 0.0 0.0 38.86
2019-12-13 21:15 37.18 50.22 20.35 37.18 37.18 1.16 4.74 2.53 73.1 338.8 0.0 0.0 38.82
2019-12-13 21:20 37.36 49.71 20.27 37.36 37.36 1.52 12.06 3.74 55.4 290.5 0.0 0.0 38.79
2019-12-13 21:25 37.42 48.38 19.69 33.33 37.42 5.1 7.07 3.91 53.5 303.0 0.0 0.0 38.77
2019-12-13 21:30 37.49 48.89 20.0 34.36 37.49 4.03 8.12 5.06 22.3 300.2 0.0 0.0 38.73
2019-12-13 21:35 37.85 46.88 19.35 37.85 37.85 2.06 8.3 5.93 29.3 298.5 0.0 0.0 38.71
2019-12-13 21:40 37.98 46.3 19.17 34.13 37.98 4.92 10.8 6.29 31.0 324.1 0.0 0.0 38.68
2019-12-13 21:45 37.92 46.84 19.39 32.25 37.92 7.61 9.4 5.7 18.6 304.1 0.0 0.0 38.64
2019-12-13 21:50 37.74 48.59 20.09 34.83 37.74 3.85 7.96 5.5 23.1 285.8 0.0 0.0 38.61
2019-12-13 21:55 36.57 51.87 20.54 36.57 36.57 2.24 3.31 2.42 44.6 236.5 0.0 0.0 38.57
2019-12-13 22:00 35.58 53.65 20.41 35.58 35.58 1.7 2.77 1.61 53.6 236.7 0.0 0.0 38.55
2019-12-13 22:05 35.04 54.26 20.17 35.04 35.04 1.88 3.31 2.19 19.4 211.6 0.0 0.0 38.52
2019-12-13 22:10 34.74 55.25 20.31 34.74 34.74 1.88 2.24 1.1 17.3 242.0 0.0 0.0 38.48
2019-12-13 22:15 33.8 57.54 20.39 33.8 33.8 2.59 2.59 1.52 26.0 258.1 0.0 0.0 38.44
2019-12-13 22:20 33.26 59.83 20.8 33.26 33.26 0.98 3.13 2.01 17.7 291.4 0.0 0.0 38.41
2019-12-13 22:25 33.01 60.52 20.83 33.01 33.01 2.42 2.42 1.72 40.8 225.5 0.0 0.0 38.37
2019-12-13 22:30 34.0 58.94 21.14 34.0 34.0 1.7 3.13 2.24 27.7 250.1 0.0 0.0 38.34
2019-12-13 22:35 34.43 58.16 21.24 29.23 34.43 5.82 5.82 3.11 25.6 259.6 0.0 0.0 38.28
2019-12-13 22:40 34.61 58.57 21.57 34.61 34.61 2.06 4.74 2.62 25.3 260.0 0.0 0.0 38.25
2019-12-13 22:45 34.66 58.5 21.59 31.29 34.66 3.85 5.28 2.8 40.8 262.3 0.0 0.0 38.21
2019-12-13 22:50 34.66 58.16 21.46 34.66 34.66 2.59 4.38 2.51 31.4 289.9 0.0 0.0 38.17
2019-12-13 22:55 34.61 59.87 22.09 34.61 34.61 2.24 4.74 3.2 17.2 286.5 0.0 0.0 38.14
2019-12-13 23:00 34.3 61.23 22.33 31.72 34.3 3.13 4.21 3.0 24.3 279.5 0.0 0.0 38.1
2019-12-13 23:05 34.3 61.23 22.33 31.49 34.3 3.31 4.74 3.06 20.7 291.3 0.0 0.0 38.07
2019-12-13 23:10 34.36 60.28 22.01 34.36 34.36 2.95 4.03 2.89 19.0 292.9 0.0 0.0 38.07
2019-12-13 23:15 34.3 61.06 22.27 34.3 34.3 1.88 3.85 2.8 22.0 300.3 0.0 0.0 38.03
2019-12-13 23:20 34.43 60.82 22.29 34.43 34.43 0.0 3.13 2.1 22.6 284.9 0.0 0.0 37.99
2019-12-13 23:25 34.18 60.69 22.01 34.18 34.18 2.77 3.49 1.9 23.4 285.3 0.0 0.0 37.99
2019-12-13 23:30 34.12 60.38 21.83 34.12 34.12 2.77 2.95 2.55 12.6 311.8 0.0 0.0 37.96
2019-12-13 23:35 34.36 59.94 21.88 34.36 34.36 1.88 3.85 2.35 29.7 315.7 0.0 0.0 37.96
2019-12-13 23:40 33.39 61.75 21.67 33.39 33.39 2.06 3.49 2.15 39.0 244.3 0.0 0.0 37.92
2019-12-13 23:45 32.7 64.55 22.07 32.7 32.7 1.88 6.0 2.75 49.9 240.1 0.0 0.0 37.92
2019-12-13 23:50 32.58 64.68 21.99 29.52 32.58 3.31 3.67 2.42 46.0 234.1 0.0 0.0 37.89
2019-12-13 23:55 32.22 65.44 21.93 32.22 32.22 2.24 2.77 1.1 14.0 269.2 0.0 0.0 37.87
2019-12-14 00:00 31.96 65.74 21.8 31.96 31.96 2.59 3.67 2.75 50.5 305.8 0.0 0.0 37.85
2019-12-14 00:05 31.41 65.98 21.35 28.43 31.41 3.13 3.67 2.06 16.7 231.9 0.0 0.0 37.81
2019-12-14 00:10 30.74 67.8 21.36 30.74 30.74 2.06 3.85 2.71 21.8 269.5 0.0 0.0 37.78
2019-12-14 00:15 30.87 67.19 21.26 30.87 30.87 0.0 4.03 2.26 42.1 243.4 0.0 0.0 37.74
2019-12-14 00:20 30.38 68.52 21.26 30.38 30.38 1.88 3.85 2.33 17.5 301.5 0.0 0.0 37.72
2019-12-14 00:25 30.38 68.8 21.36 30.38 30.38 1.52 2.77 1.68 28.9 302.2 0.0 0.0 37.69
2019-12-14 00:30 30.38 68.15 21.13 30.38 30.38 1.16 2.77 1.54 85.0 31.7 0.0 0.0 37.65
2019-12-14 00:35 30.38 67.98 21.07 30.38 30.38 0.0 4.03 2.3 13.5 272.2 0.0 0.0 37.62
2019-12-14 00:40 30.31 68.97 21.35 30.31 30.31 1.88 2.24 1.32 35.1 10.2 0.0 0.0 37.58
2019-12-14 00:45 29.88 70.37 21.41 29.88 29.88 1.34 3.67 2.21 85.8 26.2 0.0 0.0 37.53
2019-12-14 00:50 29.82 71.12 21.61 26.15 29.82 3.49 4.38 2.21 91.1 190.2 0.0 0.0 37.49
2019-12-14 00:55 29.88 70.81 21.55 29.88 29.88 2.95 3.49 2.01 70.2 127.9 0.0 0.0 37.47
2019-12-14 01:00 29.21 71.84 21.25 29.21 29.21 2.06 3.31 2.66 52.6 174.0 0.0 0.0 37.44
2019-12-14 01:05 29.77 70.24 21.26 29.77 29.77 0.0 3.13 2.19 49.0 332.3 0.0 0.0 37.4
2019-12-14 01:10 29.08 72.26 21.27 29.08 29.08 2.77 4.03 2.77 37.5 123.1 0.0 0.0 37.36
2019-12-14 01:15 29.16 71.92 21.23 29.16 29.16 2.59 2.95 2.3 88.3 259.3 0.0 0.0 37.35
2019-12-14 01:20 29.28 71.68 21.27 29.28 29.28 2.59 4.03 2.59 59.2 356.4 0.0 0.0 37.31
2019-12-14 01:25 29.53 71.34 21.4 29.53 29.53 1.52 2.95 1.39 41.0 1.6 0.0 0.0 37.29
2019-12-14 01:30 29.53 72.91 21.92 29.53 29.53 0.98 2.06 0.34 4.9 221.5 0.0 0.0 37.26
2019-12-14 01:35 29.28 73.18 21.76 29.28 29.28 2.06 2.59 1.57 38.6 236.4 0.0 0.0 37.22
2019-12-14 01:40 28.85 73.83 21.55 28.85 28.85 1.7 3.31 2.26 42.6 215.7 0.0 0.0 37.18
2019-12-14 01:45 28.8 73.49 21.39 28.8 28.8 2.06 2.06 1.28 48.1 52.1 0.0 0.0 37.15
2019-12-14 01:50 28.8 74.24 21.63 28.8 28.8 2.42 2.59 1.36 63.5 33.0 0.0 0.0 37.13
2019-12-14 01:55 28.98 74.38 21.85 28.98 28.98 0.98 2.42 1.48 63.9 350.0 0.0 0.0 37.13
2019-12-14 02:00 29.1 74.31 21.95 25.82 29.1 3.13 3.85 1.5 18.0 216.4 0.0 0.0 37.09
2019-12-14 02:05 28.72 74.45 21.63 28.72 28.72 1.52 5.1 3.04 15.6 265.2 0.0 0.0 37.06
2019-12-14 02:10 28.72 74.93 21.78 24.89 28.72 3.49 3.85 1.97 44.1 276.8 0.0 0.0 37.06
2019-12-14 02:15 28.9 73.49 21.49 28.9 28.9 2.06 3.67 2.98 39.2 229.4 0.0 0.0 37.02
2019-12-14 02:20 29.28 73.49 21.86 29.28 29.28 2.06 2.95 2.04 49.7 277.0 0.0 0.0 37.0
2019-12-14 02:25 29.03 75.13 22.14 29.03 29.03 2.42 3.13 2.3 53.6 281.5 0.0 0.0 36.99
2019-12-14 02:30 29.28 74.45 22.17 23.93 29.28 4.92 4.92 1.5 50.1 207.7 0.0 0.0 36.97
2019-12-14 02:35 29.16 75.0 22.22 29.16 29.16 1.16 4.74 1.48 34.8 195.0 0.0 0.0 36.95
2019-12-14 02:40 29.03 76.36 22.52 29.03 29.03 0.81 3.31 1.32 38.5 25.8 0.0 0.0 36.91
2019-12-14 02:45 29.1 76.12 22.52 29.1 29.1 2.06 2.42 1.14 60.4 65.7 0.0 0.0 36.91
2019-12-14 02:50 29.03 76.09 22.44 29.03 29.03 1.7 3.49 1.54 54.6 58.2 0.0 0.0 36.88
2019-12-14 02:55 28.9 75.54 22.15 28.9 28.9 2.06 2.77 1.77 80.9 161.7 0.0 0.0 36.88
2019-12-14 03:00 28.29 76.29 21.79 28.29 28.29 1.16 4.74 3.24 29.6 211.4 0.0 0.0 36.84
2019-12-14 03:05 28.24 76.77 21.88 28.24 28.24 2.59 5.28 3.06 76.4 266.6 0.0 0.0 36.84
2019-12-14 03:10 28.17 76.43 21.71 28.17 28.17 2.59 3.67 2.15 38.2 162.1 0.0 0.0 36.81
2019-12-14 03:15 28.8 74.65 21.76 24.98 28.8 3.49 3.85 2.86 38.5 151.7 0.0 0.0 36.81
2019-12-14 03:20 28.36 75.51 21.61 24.25 28.36 3.67 4.74 3.15 80.6 31.1 0.0 0.0 36.77
2019-12-14 03:25 29.03 73.29 21.55 29.03 29.03 1.16 4.03 2.84 41.2 66.3 0.0 0.0 36.77
2019-12-14 03:30 29.16 73.29 21.67 29.16 29.16 1.34 3.31 1.57 72.5 19.1 0.0 0.0 36.73
2019-12-14 03:35 29.77 71.54 21.69 29.77 29.77 0.81 3.31 1.66 29.8 52.3 0.0 0.0 36.72
2019-12-14 03:40 29.89 70.55 21.48 29.89 29.89 0.0 0.81 0.02 0.0 112.9 0.0 0.0 36.7
2019-12-14 03:45 30.02 71.0 21.76 30.02 30.02 2.06 4.56 2.37 73.5 198.7 0.0 0.0 36.7
2019-12-14 03:50 30.07 71.78 22.07 30.07 30.07 1.88 2.59 2.1 70.3 143.6 0.0 0.0 36.66
2019-12-14 03:55 30.02 70.01 21.42 30.02 30.02 1.16 2.59 1.05 62.2 197.1 0.0 0.0 36.64
2019-12-14 04:00 30.27 71.58 22.19 30.27 30.27 0.0 1.88 0.87 59.9 99.5 0.0 0.0 36.64
2019-12-14 04:05 30.33 70.83 21.99 30.33 30.33 0.0 3.67 1.36 6.2 168.0 0.0 0.0 36.63
2019-12-14 04:10 30.38 71.71 22.34 30.38 30.38 0.0 1.88 0.67 14.0 173.3 0.0 0.0 36.61
2019-12-14 04:15 30.27 70.83 21.94 30.27 30.27 2.42 2.77 0.78 14.0 142.5 0.0 0.0 36.61
2019-12-14 04:20 30.02 71.34 21.87 30.02 30.02 1.88 2.24 1.59 34.0 35.8 0.0 0.0 36.57
2019-12-14 04:25 29.95 71.75 21.94 29.95 29.95 0.0 1.88 0.45 15.3 333.6 0.0 0.0 36.57
2019-12-14 04:30 29.89 71.3 21.73 29.89 29.89 0.0 2.77 1.21 19.7 352.1 0.0 0.0 36.57
2019-12-14 04:35 29.71 71.2 21.53 29.71 29.71 2.42 2.42 0.83 17.9 338.1 0.0 0.0 36.54
2019-12-14 04:40 29.23 72.88 21.61 29.23 29.23 2.59 2.95 1.74 41.2 266.0 0.0 0.0 36.54
2019-12-14 04:45 28.6 74.93 21.66 28.6 28.6 2.59 3.49 2.35 73.3 230.9 0.0 0.0 36.5
2019-12-14 04:50 28.6 74.65 21.57 28.6 28.6 1.34 3.31 0.98 16.2 271.6 0.0 0.0 36.5
2019-12-14 04:55 28.72 74.04 21.5 28.72 28.72 0.0 1.34 0.43 53.6 298.7 0.0 0.0 36.48
2019-12-14 05:00 28.85 73.73 21.52 24.81 28.85 3.67 3.67 2.13 78.1 142.6 0.0 0.0 36.46
2019-12-14 05:05 28.47 74.31 21.34 28.47 28.47 2.77 6.53 3.44 97.4 190.4 0.0 0.0 36.43
2019-12-14 05:10 28.9 72.6 21.21 28.9 28.9 2.42 3.67 2.15 42.1 21.6 0.0 0.0 36.43
2019-12-14 05:15 29.89 69.8 21.23 23.55 29.89 6.17 6.71 4.3 95.1 14.7 0.0 0.0 36.43
2019-12-14 05:20 30.02 68.98 21.07 23.99 30.02 5.82 5.82 2.8 68.3 112.5 0.0 0.0 36.39
2019-12-14 05:25 29.53 70.62 21.16 29.53 29.53 2.77 5.46 3.24 79.2 121.8 0.0 0.0 36.39
2019-12-14 05:30 29.28 70.79 20.98 25.3 29.28 3.67 4.74 2.93 79.6 56.1 0.0 0.0 36.36
2019-12-14 05:35 29.46 71.0 21.22 29.46 29.46 1.52 4.92 3.06 78.5 39.6 0.0 0.0 36.34
2019-12-14 05:40 30.38 68.23 21.16 30.38 30.38 2.95 4.38 3.0 26.5 49.4 0.0 0.0 36.32
2019-12-14 05:45 30.02 69.18 21.14 30.02 30.02 2.77 2.77 1.74 41.2 113.2 0.0 0.0 36.32
2019-12-14 05:50 29.16 70.76 20.84 29.16 29.16 2.59 3.13 1.66 82.7 179.1 0.0 0.0 36.28
2019-12-14 05:55 28.8 72.26 20.99 23.72 28.8 4.56 7.07 3.36 62.0 53.9 0.0 0.0 36.27
2019-12-14 06:00 28.9 72.57 21.2 28.9 28.9 1.52 4.38 2.13 90.3 152.5 0.0 0.0 36.25
2019-12-14 06:05 28.54 73.29 21.08 28.54 28.54 2.42 4.21 2.44 66.1 168.7 0.0 0.0 36.23
2019-12-14 06:10 28.54 72.71 20.9 28.54 28.54 1.7 2.06 1.48 98.6 15.5 0.0 0.0 36.21
2019-12-14 06:15 28.49 74.12 21.3 19.78 28.49 9.22 9.22 3.22 57.4 68.9 0.0 0.0 36.19
2019-12-14 06:20 29.41 71.45 21.32 29.41 29.41 2.06 7.07 3.98 91.3 22.8 0.0 0.0 36.18
2019-12-14 06:25 30.4 70.29 21.88 24.01 30.4 6.35 7.25 3.04 76.7 27.4 0.0 0.0 36.14
2019-12-14 06:30 32.36 65.5 22.09 29.51 32.36 3.13 7.43 4.47 93.2 96.4 0.0 0.0 36.14
2019-12-14 06:35 32.92 63.86 22.02 25.43 32.92 8.86 8.86 3.53 72.3 68.1 0.0 0.0 36.1
2019-12-14 06:40 33.22 63.24 22.08 33.22 33.22 2.77 12.59 5.23 94.1 113.3 0.0 0.0 36.12
2019-12-14 06:45 33.22 63.38 22.13 28.89 33.22 4.56 6.53 3.83 78.8 259.3 0.0 0.0 36.09
2019-12-14 06:50 33.1 63.85 22.18 33.1 33.1 1.34 4.38 2.59 63.8 37.2 0.0 0.0 36.09
2019-12-14 06:55 32.72 66.31 22.72 27.64 32.72 5.28 5.64 2.77 50.9 140.8 0.0 0.0 36.05
2019-12-14 07:00 31.93 68.95 22.89 26.26 31.93 5.82 5.82 4.09 34.9 171.8 0.0 0.001 36.05
2019-12-14 07:05 31.62 71.58 23.49 28.21 31.62 3.49 6.0 3.78 36.2 193.4 0.0 0.002 36.01
2019-12-14 07:10 32.04 69.62 23.23 28.47 32.04 3.67 3.67 1.97 64.0 114.6 0.0 0.002 36.01
2019-12-14 07:15 32.11 72.66 24.32 32.11 32.11 0.98 3.85 2.17 39.0 92.2 0.0 0.005 36.01
2019-12-14 07:20 31.6 71.91 23.58 28.42 31.6 3.31 4.74 1.79 39.1 323.4 0.0 0.004 36.0
2019-12-14 07:25 32.04 72.22 24.1 32.04 32.04 2.59 4.92 3.04 73.3 191.0 0.0 0.012 35.98
2019-12-14 07:30 32.11 71.16 23.82 32.11 32.11 0.98 3.85 1.95 61.4 199.1 0.0 0.02 35.96
2019-12-14 07:35 33.46 71.29 25.16 33.46 33.46 2.24 3.85 2.73 91.3 10.9 0.0 0.033 35.96
2019-12-14 07:40 34.56 67.16 24.78 34.56 34.56 2.42 5.82 2.59 63.5 1.6 0.0 0.03 35.96
2019-12-14 07:45 38.01 59.95 25.33 32.36 38.01 7.61 10.27 4.79 63.8 352.6 0.0 0.017 35.94
2019-12-14 07:50 42.24 54.07 26.81 37.68 42.24 7.25 11.88 7.9 19.1 320.3 0.0 0.021 35.92
2019-12-14 07:55 42.98 51.98 26.54 39.07 42.98 6.35 10.27 6.04 22.4 323.5 0.0 0.027 35.92
2019-12-14 08:00 43.9 47.7 25.31 39.33 43.9 7.96 13.67 9.53 22.0 313.3 0.0 0.041 35.92
2019-12-14 08:05 43.9 47.84 25.38 38.84 43.9 9.04 14.03 9.64 24.3 305.2 0.0 0.034 35.91
2019-12-14 08:10 44.02 47.5 25.33 39.65 44.02 7.61 14.03 9.44 17.2 310.2 0.0 0.047 35.91
2019-12-14 08:15 44.31 45.72 24.67 38.53 44.31 11.16 12.42 7.96 19.4 307.7 0.0 0.057 35.91
2019-12-14 08:20 44.74 46.05 25.24 39.66 44.74 9.57 14.92 8.81 25.7 312.8 0.0 0.05 35.92
2019-12-14 08:25 45.28 44.99 25.18 41.54 45.28 6.89 12.24 8.12 27.3 313.6 0.0 0.068 35.94
2019-12-14 08:30 45.72 44.27 25.18 40.67 45.72 10.09 17.25 9.69 20.7 321.2 0.0 0.074 35.94
2019-12-14 08:35 45.9 43.45 24.9 43.94 45.9 4.21 9.73 6.51 51.7 339.8 0.0 0.086 35.94
2019-12-14 08:40 45.88 46.04 26.27 42.07 45.88 7.25 8.12 5.15 37.0 327.9 0.0 0.084 35.98
2019-12-14 08:45 45.82 44.53 25.42 42.28 45.82 6.71 9.73 6.91 26.6 306.8 0.0 0.095 36.01
2019-12-14 08:50 45.57 44.46 25.15 43.05 45.57 4.92 9.57 6.85 19.1 318.3 0.0 0.053 36.05
2019-12-14 08:55 45.88 42.82 24.53 42.54 45.88 6.35 10.27 6.8 20.7 302.5 0.0 0.042 36.1
2019-12-14 09:00 45.63 42.79 24.28 41.43 45.63 7.96 15.99 8.48 21.7 310.6 0.0 0.047 36.18
2019-12-14 09:05 46.47 40.67 23.83 40.77 46.47 12.59 13.67 9.15 23.1 294.0 0.0 0.092 36.25
2019-12-14 09:10 46.78 40.08 23.76 42.83 46.78 7.96 17.07 10.72 19.3 296.6 0.0 0.101 36.34
2019-12-14 09:15 46.29 41.24 24.0 41.07 46.29 10.98 16.71 10.98 24.4 301.7 0.0 0.08 36.41
2019-12-14 09:20 46.6 39.33 23.15 40.57 46.6 13.85 13.85 10.02 27.3 294.4 0.0 0.085 36.48
2019-12-14 09:25 46.22 39.43 22.87 42.23 46.22 7.78 15.1 9.89 20.5 291.6 0.0 0.068 36.55
2019-12-14 09:30 47.32 38.03 22.99 42.91 47.32 9.4 15.82 9.53 24.5 301.3 0.0 0.118 36.64
2019-12-14 09:35 47.19 38.1 22.92 42.19 47.19 10.98 14.74 11.07 23.4 297.2 0.0 0.116 36.72
2019-12-14 09:40 47.19 37.89 22.79 42.31 47.19 10.63 17.07 10.31 22.4 302.3 0.0 0.117 36.81
2019-12-14 09:45 47.55 37.21 22.68 44.27 47.55 6.89 13.85 9.04 26.9 297.3 0.0 0.121 36.9
2019-12-14 09:50 48.16 34.0 21.09 44.16 48.16 8.86 12.59 8.08 23.7 297.8 0.0 0.124 36.97
2019-12-14 09:55 47.86 35.29 21.7 44.01 47.86 8.3 20.83 11.41 28.8 299.9 0.0 0.127 37.06
2019-12-14 10:00 47.43 36.56 22.15 41.62 47.43 13.85 17.07 13.2 27.3 308.7 0.0 0.13 37.17
2019-12-14 10:05 47.48 36.79 22.35 43.32 47.48 8.86 17.61 12.1 26.5 297.6 0.0 0.134 37.29
2019-12-14 10:10 47.55 37.2 22.68 45.61 47.55 4.56 16.17 11.16 19.2 298.9 0.0 0.128 37.38
2019-12-14 10:15 47.61 36.72 22.42 42.05 47.61 13.13 21.72 12.59 28.8 302.3 0.0 0.144 37.49
2019-12-14 10:20 47.55 37.78 23.04 43.2 47.55 9.4 16.89 10.42 19.5 295.6 0.0 0.125 37.6
2019-12-14 10:25 47.48 37.13 22.57 41.84 47.48 13.31 19.93 13.24 24.7 288.8 0.0 0.145 37.71
2019-12-14 10:30 47.91 37.1 22.93 43.71 47.91 9.22 16.53 10.76 17.6 298.7 0.0 0.147 37.81
2019-12-14 10:35 47.91 37.27 23.04 43.52 47.91 9.73 17.25 11.74 27.6 300.3 0.0 0.147 37.92
2019-12-14 10:40 48.22 35.7 22.29 43.41 48.22 11.16 16.53 10.04 27.3 304.5 0.0 0.148 38.05
2019-12-14 10:45 47.86 35.7 21.97 42.79 47.86 11.7 21.18 12.55 19.5 303.8 0.0 0.149 38.16
2019-12-14 10:50 47.48 35.63 21.59 40.32 47.48 19.75 23.33 14.14 20.9 314.9 0.0 0.15 38.3
2019-12-14 10:55 47.48 35.29 21.36 41.84 47.48 13.31 20.29 13.69 23.9 300.3 0.0 0.154 38.43
2019-12-14 11:00 47.73 35.73 21.88 42.64 47.73 11.7 21.36 12.86 24.7 309.9 0.0 0.152 38.57
2019-12-14 11:05 47.73 34.88 21.31 42.21 47.73 13.13 17.78 13.11 21.9 295.9 0.0 0.154 38.68
2019-12-14 11:10 48.34 33.89 21.17 44.31 48.34 9.04 17.07 10.47 21.4 307.3 0.0 0.161 38.8
2019-12-14 11:15 48.45 33.21 20.79 43.08 48.45 13.31 17.43 11.92 18.6 299.3 0.0 0.15 38.95
2019-12-14 11:20 47.79 36.01 22.11 42.38 47.79 12.77 20.65 13.8 27.6 311.6 0.0 0.167 39.07
2019-12-14 11:25 47.71 37.64 23.1 44.73 47.71 6.35 18.14 12.08 19.9 303.1 0.0 0.133 39.22
2019-12-14 11:30 48.22 36.17 22.6 43.3 48.22 11.52 20.11 13.06 21.8 302.5 0.0 0.169 39.36
2019-12-14 11:35 48.15 35.83 22.31 42.09 48.15 15.64 19.75 12.37 23.6 312.2 0.0 0.162 39.49
2019-12-14 11:40 47.97 35.8 22.13 43.52 47.97 9.91 21.01 9.1 38.6 313.5 0.0 0.16 39.61
2019-12-14 11:45 47.97 36.07 22.31 43.78 47.97 9.22 17.78 11.86 26.3 307.9 0.0 0.152 39.74
2019-12-14 11:50 48.63 35.25 22.36 45.17 48.63 7.78 15.82 11.72 21.0 300.4 0.0 0.163 39.87
2019-12-14 11:55 48.45 35.76 22.54 42.03 48.45 17.61 17.61 11.59 24.3 314.3 0.0 0.162 40.01
2019-12-14 12:00 48.81 35.69 22.81 44.27 48.81 10.8 15.28 9.73 16.0 298.9 0.0 0.145 40.15
2019-12-14 12:05 49.24 34.43 22.34 44.75 49.24 10.98 11.7 8.84 22.9 304.5 0.0 0.149 40.26
2019-12-14 12:10 48.33 34.6 21.65 43.49 48.33 11.34 16.53 11.81 28.5 302.5 0.0 0.114 40.39
2019-12-14 12:15 48.88 34.4 22.0 43.92 48.88 12.24 18.5 10.96 21.8 298.7 0.0 0.133 40.53
2019-12-14 12:20 48.07 35.59 22.09 43.53 48.07 10.27 17.78 11.14 17.2 295.0 0.0 0.102 40.68
2019-12-14 12:25 47.71 36.99 22.69 43.68 47.71 8.68 16.89 11.9 24.5 300.8 0.0 0.105 40.78
2019-12-14 12:30 47.35 37.47 22.67 43.39 47.35 8.3 17.07 10.85 22.1 289.6 0.0 0.077 40.87
2019-12-14 12:35 47.16 37.74 22.67 41.86 47.16 11.88 17.43 11.99 21.7 305.0 0.0 0.049 40.98
2019-12-14 12:40 47.17 38.26 23.01 43.56 47.17 7.43 17.07 10.56 21.6 299.9 0.0 0.094 41.09
2019-12-14 12:45 47.23 38.12 22.97 42.8 47.23 9.4 15.82 9.4 17.2 314.8 0.0 0.07 41.14
2019-12-14 12:50 46.87 39.04 23.21 42.16 46.87 9.91 14.74 9.95 17.6 307.4 0.0 0.06 41.2
2019-12-14 12:55 46.38 39.39 22.99 41.12 46.38 11.16 15.64 11.65 23.9 301.5 0.0 0.056 41.25
2019-12-14 13:00 46.44 40.41 23.65 43.3 46.44 6.17 15.82 10.11 20.1 310.9 0.0 0.051 41.31
2019-12-14 13:05 46.51 39.25 23.02 42.43 46.51 8.12 15.82 10.16 20.5 316.7 0.0 0.069 41.32
2019-12-14 13:10 46.62 39.18 23.07 42.11 46.62 9.22 14.2 9.51 20.4 309.8 0.0 0.084 41.36
2019-12-14 13:15 47.05 38.53 23.06 43.16 47.05 7.96 11.88 8.41 15.8 324.5 0.0 0.092 41.38
2019-12-14 13:20 47.61 38.23 23.38 44.7 47.61 6.17 11.16 7.56 17.6 310.5 0.0 0.091 41.38
2019-12-14 13:25 47.68 38.47 23.59 43.04 47.68 10.27 12.77 8.08 26.3 299.5 0.0 0.073 41.4
2019-12-14 13:30 47.37 38.6 23.4 45.4 47.37 4.56 19.39 10.69 17.9 303.6 0.0 0.087 41.41
2019-12-14 13:35 47.48 38.64 23.52 43.62 47.48 8.12 11.16 7.25 21.9 319.9 0.0 0.07 41.45
2019-12-14 13:40 47.91 38.23 23.65 43.85 47.91 8.86 12.24 7.72 30.1 314.9 0.0 0.091 41.47
2019-12-14 13:45 47.73 38.16 23.44 42.64 47.73 11.7 15.82 10.67 17.6 318.7 0.0 0.092 41.5
2019-12-14 13:50 48.47 36.38 22.97 44.33 48.47 9.4 15.99 10.6 18.7 315.2 0.0 0.134 41.52
2019-12-14 13:55 48.6 36.25 22.99 44.18 48.6 10.27 11.16 8.34 21.7 314.8 0.0 0.076 41.56
2019-12-14 14:00 48.34 37.44 23.54 45.31 48.34 6.71 12.24 7.83 24.1 314.7 0.0 0.065 41.59
2019-12-14 14:05 48.29 36.66 22.99 46.35 48.29 4.74 9.73 6.49 25.7 308.5 0.0 0.063 41.63
2019-12-14 14:10 48.22 36.01 22.5 45.82 48.22 5.46 13.13 7.49 33.9 313.4 0.0 0.047 41.67
2019-12-14 14:15 48.22 36.18 22.61 46.04 48.22 5.1 11.16 6.51 21.2 310.8 0.0 0.053 41.72
2019-12-14 14:20 48.34 37.17 23.36 46.41 48.34 4.74 7.25 4.45 23.3 308.6 0.0 0.048 41.76
2019-12-14 14:25 48.52 36.42 23.04 46.74 48.52 4.56 7.25 4.43 29.0 279.3 0.0 0.052 41.79
2019-12-14 14:30 48.22 36.52 22.83 46.27 48.22 4.74 15.28 8.1 31.1 258.1 0.0 0.057 41.83
2019-12-14 14:35 48.09 37.61 23.42 46.36 48.09 4.38 15.82 7.18 34.6 267.2 0.0 0.066 41.85
2019-12-14 14:40 48.47 36.69 23.17 45.29 48.47 7.07 11.34 5.86 46.6 265.3 0.0 0.071 41.88
2019-12-14 14:45 48.16 37.03 23.11 45.0 48.16 6.89 10.27 6.29 38.3 244.7 0.0 0.047 41.88
2019-12-14 14:50 47.97 35.05 21.63 45.13 47.97 6.17 7.61 4.85 31.5 270.9 0.0 0.047 41.9
2019-12-14 14:55 48.47 35.15 22.15 45.73 48.47 6.17 9.73 5.59 48.7 293.6 0.0 0.044 41.92
2019-12-14 15:00 48.09 35.15 21.81 45.28 48.09 6.17 10.27 6.49 24.3 303.4 0.0 0.037 41.92
2019-12-14 15:05 48.04 36.21 22.47 45.72 48.04 5.28 9.57 7.02 30.1 298.6 0.0 0.03 41.95
2019-12-14 15:10 47.79 36.55 22.47 44.73 47.79 6.53 9.4 5.97 24.7 292.1 0.0 0.028 41.95
2019-12-14 15:15 47.48 37.34 22.7 45.65 47.48 4.38 10.27 6.98 22.4 286.0 0.0 0.026 41.95
2019-12-14 15:20 47.61 37.07 22.64 45.32 47.61 5.1 8.48 5.91 25.6 294.2 0.0 0.028 41.95
2019-12-14 15:25 47.55 37.58 22.92 46.59 47.55 3.31 8.68 5.41 22.0 295.4 0.0 0.022 41.97
2019-12-14 15:30 47.62 37.55 22.96 45.69 47.62 4.56 5.28 3.42 39.7 263.7 0.0 0.022 41.95
2019-12-14 15:35 47.37 39.12 23.71 43.96 47.37 7.07 9.73 6.46 35.0 284.2 0.0 0.025 41.92
2019-12-14 15:40 46.63 41.68 24.57 44.29 46.63 4.92 15.99 7.56 31.7 279.4 0.0 0.024 41.92
2019-12-14 15:45 46.51 40.42 23.72 43.59 46.51 5.82 7.61 4.5 51.1 262.0 0.0 0.02 41.9
2019-12-14 15:50 46.76 39.32 23.29 42.51 46.76 8.68 8.68 4.56 39.0 241.7 0.0 0.022 41.9
2019-12-14 15:55 46.81 39.8 23.62 45.15 46.81 4.03 6.0 4.3 49.2 250.5 0.0 0.018 41.9
2019-12-14 16:00 46.76 40.59 24.05 45.69 46.76 3.31 7.43 4.47 50.2 232.6 0.0 0.014 41.86
2019-12-14 16:05 46.27 41.96 24.4 44.67 46.27 3.85 4.56 3.0 39.0 271.4 0.0 0.01 41.86
2019-12-14 16:10 46.09 40.22 23.23 46.09 46.09 2.95 4.92 3.36 45.0 237.4 0.0 0.007 41.83
2019-12-14 16:15 46.22 40.18 23.32 45.07 46.22 3.31 7.43 4.12 29.7 229.1 0.0 0.004 41.79
2019-12-14 16:20 46.04 40.46 23.32 43.59 46.04 4.92 7.61 5.93 34.9 264.9 0.0 0.004 41.77
2019-12-14 16:25 45.97 40.83 23.47 44.31 45.97 3.85 9.4 4.9 43.6 258.9 0.0 0.004 41.76
2019-12-14 16:30 45.86 40.22 23.02 43.9 45.86 4.21 8.48 5.37 43.3 241.4 0.0 0.003 41.72
2019-12-14 16:35 45.66 40.18 22.81 43.15 45.66 4.92 7.25 4.27 46.9 265.4 0.0 0.002 41.68

Data is courtesy of the NM Climate Center. DO NOT USE IN LEGAL PROCEEDINGS.